createdAt,value
2022-09-01T00:01:16.560Z,16.25
2022-09-01T00:04:02.154Z,16.09
2022-09-01T00:06:47.722Z,16.05
2022-09-01T00:09:34.050Z,15.99
2022-09-01T00:12:19.117Z,16.00
2022-09-01T00:15:06.590Z,16.00
2022-09-01T00:17:51.940Z,16.07
2022-09-01T00:20:37.322Z,15.91
2022-09-01T00:23:22.480Z,15.94
2022-09-01T00:26:08.080Z,15.96
2022-09-01T00:28:53.674Z,15.89
2022-09-01T00:31:39.951Z,15.89
2022-09-01T00:34:25.253Z,15.93
2022-09-01T00:37:10.343Z,15.90
2022-09-01T00:39:56.042Z,15.96
2022-09-01T00:42:41.894Z,15.89
2022-09-01T00:45:27.264Z,15.86
2022-09-01T00:48:12.432Z,15.83
2022-09-01T00:51:00.253Z,15.78
2022-09-01T00:53:45.938Z,15.68
2022-09-01T00:56:33.465Z,15.76
2022-09-01T00:59:22.041Z,15.81
2022-09-01T01:02:07.303Z,15.68
2022-09-01T01:04:52.605Z,15.78
2022-09-01T01:07:38.313Z,15.76
2022-09-01T01:10:24.357Z,15.66
2022-09-01T01:13:12.181Z,15.52
2022-09-01T01:15:58.032Z,15.52
2022-09-01T01:18:43.467Z,15.62
2022-09-01T01:21:38.854Z,15.42
2022-09-01T01:24:30.983Z,15.47
2022-09-01T01:27:16.286Z,15.35
2022-09-01T01:30:04.518Z,15.35
2022-09-01T01:32:54.673Z,15.22
2022-09-01T01:35:40.784Z,15.35
2022-09-01T01:38:26.348Z,15.30
2022-09-01T01:41:12.226Z,15.31
2022-09-01T01:44:02.766Z,15.29
2022-09-01T01:46:51.044Z,15.12
2022-09-01T01:49:36.391Z,15.00
2022-09-01T01:52:21.710Z,14.96
2022-09-01T01:55:11.534Z,14.88
2022-09-01T01:57:58.715Z,14.90
2022-09-01T02:00:44.143Z,14.95
2022-09-01T02:03:32.606Z,15.01
2022-09-01T02:06:17.805Z,14.90
2022-09-01T02:09:03.712Z,14.82
2022-09-01T02:11:48.845Z,14.80
2022-09-01T02:14:34.242Z,14.74
2022-09-01T02:17:19.339Z,14.83
2022-09-01T02:20:04.357Z,14.63
2022-09-01T02:22:49.671Z,14.67
2022-09-01T02:25:35.552Z,14.65
2022-09-01T02:28:22.843Z,14.60
2022-09-01T02:31:10.072Z,14.52
2022-09-01T02:33:55.455Z,14.45
2022-09-01T02:36:43.466Z,14.43
2022-09-01T02:39:31.149Z,14.41
2022-09-01T02:42:16.218Z,14.25
2022-09-01T02:45:02.633Z,14.28
2022-09-01T02:47:47.963Z,14.21
2022-09-01T02:50:33.574Z,14.33
2022-09-01T02:53:18.875Z,14.29
2022-09-01T02:56:06.192Z,14.40
2022-09-01T02:58:51.126Z,14.39
2022-09-01T03:01:36.116Z,14.21
2022-09-01T03:04:23.421Z,14.20
2022-09-01T03:07:08.836Z,14.18
2022-09-01T03:09:53.821Z,14.13
2022-09-01T03:12:38.757Z,14.00
2022-09-01T03:15:24.225Z,13.88
2022-09-01T03:18:12.253Z,13.82
2022-09-01T03:20:57.572Z,13.92
2022-09-01T03:23:47.294Z,13.94
2022-09-01T03:26:32.356Z,13.77
2022-09-01T03:29:18.144Z,13.67
2022-09-01T03:32:04.552Z,13.66
2022-09-01T03:34:50.021Z,13.63
2022-09-01T03:37:35.516Z,13.67
2022-09-01T03:40:21.177Z,13.59
2022-09-01T03:43:09.433Z,13.58
2022-09-01T03:45:55.928Z,13.58
2022-09-01T03:48:40.859Z,13.58
2022-09-01T03:51:26.485Z,13.67
2022-09-01T03:54:12.241Z,13.52
2022-09-01T03:57:00.396Z,13.53
2022-09-01T03:59:45.399Z,13.45
2022-09-01T04:02:30.818Z,13.32
2022-09-01T04:05:17.654Z,13.02
2022-09-01T04:08:05.991Z,13.29
2022-09-01T04:10:54.395Z,13.32
2022-09-01T04:13:41.445Z,13.00
2022-09-01T04:16:29.850Z,12.51
2022-09-01T04:19:18.274Z,12.16
2022-09-01T04:22:04.273Z,11.75
2022-09-01T04:24:49.218Z,11.48
2022-09-01T04:27:34.267Z,11.70
2022-09-01T04:30:19.323Z,11.32
2022-09-01T04:33:04.592Z,10.94
2022-09-01T04:35:50.748Z,10.98
2022-09-01T04:38:35.883Z,11.00
2022-09-01T04:41:25.191Z,10.79
2022-09-01T04:44:10.331Z,10.81
2022-09-01T04:46:56.158Z,10.85
2022-09-01T04:49:41.251Z,10.91
2022-09-01T04:52:27.497Z,11.12
2022-09-01T04:55:13.547Z,11.28
2022-09-01T04:58:00.790Z,10.92
2022-09-01T05:00:48.621Z,10.81
2022-09-01T05:03:33.725Z,10.80
2022-09-01T05:06:20.057Z,11.10
2022-09-01T05:09:05.545Z,11.33
2022-09-01T05:11:51.462Z,11.54
2022-09-01T05:14:42.445Z,11.40
2022-09-01T05:17:27.721Z,11.25
2022-09-01T05:20:13.133Z,11.17
2022-09-01T05:22:58.522Z,11.06
2022-09-01T05:25:44.220Z,11.27
2022-09-01T05:28:29.452Z,11.15
2022-09-01T05:31:14.995Z,11.22
2022-09-01T05:34:01.138Z,11.07
2022-09-01T05:36:46.920Z,11.04
2022-09-01T05:39:32.864Z,11.25
2022-09-01T05:42:18.076Z,11.60
2022-09-01T05:45:03.477Z,11.69
2022-09-01T05:47:48.793Z,11.86
2022-09-01T05:50:33.942Z,12.18
2022-09-01T05:53:20.142Z,12.54
2022-09-01T05:56:09.066Z,12.92
2022-09-01T06:02:00.138Z,13.49
2022-09-01T06:04:45.682Z,13.81
2022-09-01T06:07:31.274Z,13.92
2022-09-01T06:10:16.383Z,14.15
2022-09-01T06:13:01.770Z,14.45
2022-09-01T06:15:49.316Z,14.73
2022-09-01T06:18:35.369Z,14.98
2022-09-01T06:21:21.740Z,15.28
2022-09-01T06:24:07.008Z,15.47
2022-09-01T06:26:52.336Z,15.68
2022-09-01T06:29:38.305Z,15.96
2022-09-01T06:32:23.639Z,16.24
2022-09-01T06:35:09.227Z,16.31
2022-09-01T06:37:54.316Z,16.46
2022-09-01T06:40:40.060Z,16.51
2022-09-01T06:43:25.268Z,16.79
2022-09-01T06:46:10.378Z,16.84
2022-09-01T06:48:56.689Z,17.12
2022-09-01T06:51:41.937Z,17.25
2022-09-01T06:54:27.139Z,17.40
2022-09-01T07:00:18.856Z,18.04
2022-09-01T07:03:04.497Z,18.14
2022-09-01T07:06:05.647Z,18.45
2022-09-01T07:12:26.498Z,18.90
2022-09-01T07:18:06.630Z,19.69
2022-09-01T07:21:36.276Z,19.92
2022-09-01T07:24:10.924Z,20.77
2022-09-01T07:26:56.522Z,21.17
2022-09-01T07:29:42.440Z,20.60
2022-09-01T07:35:32.669Z,20.88
2022-09-01T07:42:30.687Z,20.33
2022-09-01T07:44:31.229Z,22.00
2022-09-01T07:47:20.660Z,22.38
2022-09-01T07:50:39.668Z,22.15
2022-09-01T07:53:29.623Z,22.46
2022-09-01T07:56:18.396Z,21.86
2022-09-01T07:59:03.696Z,21.91
2022-09-01T08:01:48.833Z,22.42
2022-09-01T08:04:34.208Z,22.33
2022-09-01T08:07:19.253Z,22.47
2022-09-01T08:10:06.477Z,22.44
2022-09-01T08:12:58.995Z,22.59
2022-09-01T08:18:50.080Z,22.78
2022-09-01T08:21:35.133Z,22.96
2022-09-01T08:24:20.522Z,23.45
2022-09-01T08:27:05.512Z,23.13
2022-09-01T08:29:50.484Z,23.14
2022-09-01T08:32:37.020Z,23.66
2022-09-01T08:35:22.325Z,23.82
2022-09-01T08:38:08.750Z,23.86
2022-09-01T08:40:57.579Z,23.75
2022-09-01T08:44:21.122Z,23.98
2022-09-01T08:47:16.273Z,23.98
2022-09-01T08:50:01.834Z,24.07
2022-09-01T08:53:09.734Z,24.39
2022-09-01T08:55:58.521Z,23.22
2022-09-01T08:58:44.102Z,23.22
2022-09-01T09:01:40.485Z,22.58
2022-09-01T09:05:22.134Z,22.24
2022-09-01T09:08:41.535Z,21.86
2022-09-01T09:11:42.232Z,21.51
2022-09-01T09:14:53.072Z,21.28
2022-09-01T09:17:46.133Z,21.25
2022-09-01T09:20:31.400Z,21.33
2022-09-01T09:23:29.651Z,21.11
2022-09-01T09:26:15.951Z,21.21
2022-09-01T09:29:06.887Z,21.41
2022-09-01T09:32:06.958Z,21.45
2022-09-01T09:35:31.813Z,21.86
2022-09-01T09:38:21.845Z,21.58
2022-09-01T09:41:25.454Z,21.48
2022-09-01T09:44:32.169Z,21.23
2022-09-01T09:47:44.462Z,21.30
2022-09-01T09:50:38.099Z,21.48
2022-09-01T09:53:24.086Z,21.45
2022-09-01T09:56:15.120Z,21.65
2022-09-01T09:59:00.107Z,21.81
2022-09-01T10:01:45.250Z,21.95
2022-09-01T10:04:38.582Z,22.02
2022-09-01T10:07:36.437Z,21.88
2022-09-01T10:10:58.520Z,21.86
2022-09-01T10:13:43.963Z,21.77
2022-09-01T10:16:34.631Z,21.83
2022-09-01T10:19:20.874Z,21.83
2022-09-01T10:22:08.271Z,21.55
2022-09-01T10:24:53.542Z,21.67
2022-09-01T10:27:43.281Z,21.85
2022-09-01T10:30:30.390Z,21.81
2022-09-01T10:33:20.954Z,21.77
2022-09-01T10:36:08.140Z,21.98
2022-09-01T10:38:59.941Z,21.88
2022-09-01T10:42:00.743Z,21.90
2022-09-01T10:44:57.836Z,21.82
2022-09-01T10:47:43.453Z,21.99
2022-09-01T10:50:35.477Z,22.11
2022-09-01T10:53:34.002Z,22.22
2022-09-01T10:56:51.225Z,22.18
2022-09-01T10:59:41.767Z,22.41
2022-09-01T11:02:35.965Z,22.46
2022-09-01T11:05:21.531Z,22.47
2022-09-01T11:08:29.527Z,22.67
2022-09-01T11:11:36.543Z,22.77
2022-09-01T11:14:26.307Z,22.83
2022-09-01T11:17:43.547Z,22.38
2022-09-01T11:20:28.835Z,22.52
2022-09-01T11:23:28.039Z,22.61
2022-09-01T11:26:31.414Z,22.96
2022-09-01T11:29:55.509Z,22.64
2022-09-01T11:32:46.760Z,22.40
2022-09-01T11:35:32.599Z,22.55
2022-09-01T11:38:19.028Z,22.63
2022-09-01T11:41:04.219Z,22.51
2022-09-01T11:43:54.251Z,22.35
2022-09-01T11:46:39.963Z,22.38
2022-09-01T11:49:36.713Z,22.54
2022-09-01T11:52:25.331Z,22.91
2022-09-01T11:55:10.855Z,23.09
2022-09-01T11:57:56.342Z,23.47
2022-09-01T12:00:42.521Z,23.36
2022-09-01T12:03:29.592Z,23.04
2022-09-01T12:06:21.594Z,23.15
2022-09-01T12:09:06.697Z,22.96
2022-09-01T12:11:51.653Z,23.26
2022-09-01T12:15:02.117Z,23.21
2022-09-01T12:17:41.932Z,23.29
2022-09-01T12:20:31.360Z,23.05
2022-09-01T12:23:33.051Z,24.01
2022-09-01T12:26:24.696Z,25.32
2022-09-01T12:29:12.379Z,25.61
2022-09-01T12:31:58.484Z,26.11
2022-09-01T12:35:12.604Z,25.61
2022-09-01T12:38:19.658Z,24.55
2022-09-01T12:44:50.808Z,23.88
2022-09-01T12:47:36.199Z,23.50
2022-09-01T12:50:21.276Z,23.80
2022-09-01T12:53:15.969Z,24.58
2022-09-01T12:56:21.786Z,25.97
2022-09-01T12:59:15.527Z,26.60
2022-09-01T13:02:27.538Z,26.30
2022-09-01T13:05:31.806Z,26.20
2022-09-01T13:08:22.296Z,25.73
2022-09-01T13:11:11.383Z,25.29
2022-09-01T13:13:56.618Z,24.62
2022-09-01T13:16:41.801Z,24.24
2022-09-01T13:19:30.164Z,23.98
2022-09-01T13:22:15.885Z,23.76
2022-09-01T13:25:01.725Z,24.09
2022-09-01T13:27:47.349Z,24.60
2022-09-01T13:30:32.705Z,24.34
2022-09-01T13:33:19.580Z,23.79
2022-09-01T13:39:19.275Z,23.36
2022-09-01T13:42:05.931Z,23.58
2022-09-01T13:44:55.199Z,23.69
2022-09-01T13:53:54.060Z,23.59
2022-09-01T13:56:39.510Z,23.74
2022-09-01T13:59:25.188Z,23.88
2022-09-01T14:02:10.487Z,23.96
2022-09-01T14:04:55.559Z,23.79
2022-09-01T14:07:40.881Z,23.57
2022-09-01T14:10:28.933Z,23.52
2022-09-01T14:13:14.673Z,23.55
2022-09-01T14:16:00.155Z,23.31
2022-09-01T14:18:46.036Z,23.37
2022-09-01T14:21:31.062Z,23.35
2022-09-01T14:24:16.843Z,23.54
2022-09-01T14:27:03.113Z,23.26
2022-09-01T14:32:34.940Z,23.51
2022-09-01T14:35:22.973Z,23.44
2022-09-01T14:38:08.587Z,23.41
2022-09-01T14:40:53.521Z,23.46
2022-09-01T14:43:39.014Z,23.46
2022-09-01T14:46:24.388Z,23.44
2022-09-01T14:49:09.963Z,23.43
2022-09-01T14:52:11.359Z,23.39
2022-09-01T14:54:56.821Z,23.40
2022-09-01T14:57:41.976Z,23.36
2022-09-01T15:00:28.157Z,23.31
2022-09-01T15:03:14.050Z,23.26
2022-09-01T15:05:59.371Z,23.24
2022-09-01T15:08:45.452Z,23.04
2022-09-01T15:11:30.696Z,22.95
2022-09-01T15:14:16.542Z,23.05
2022-09-01T15:17:01.858Z,23.11
2022-09-01T15:19:46.840Z,23.19
2022-09-01T15:22:31.860Z,23.38
2022-09-01T15:25:18.319Z,23.34
2022-09-01T15:28:04.721Z,23.38
2022-09-01T15:30:51.738Z,23.52
2022-09-01T15:33:40.593Z,23.26
2022-09-01T15:36:27.760Z,23.26
2022-09-01T15:39:12.998Z,23.48
2022-09-01T15:41:57.963Z,23.61
2022-09-01T15:44:43.332Z,23.75
2022-09-01T15:47:30.101Z,23.89
2022-09-01T15:50:21.635Z,23.43
2022-09-01T15:53:08.428Z,23.41
2022-09-01T15:55:53.891Z,23.44
2022-09-01T15:58:59.502Z,23.37
2022-09-01T16:01:45.719Z,23.11
2022-09-01T16:04:30.755Z,23.12
2022-09-01T16:07:15.738Z,23.09
2022-09-01T16:10:01.191Z,23.20
2022-09-01T16:12:46.413Z,23.20
2022-09-01T16:15:31.986Z,23.21
2022-09-01T16:18:37.806Z,23.26
2022-09-01T16:21:35.353Z,23.16
2022-09-01T16:24:21.022Z,23.13
2022-09-01T16:27:09.271Z,23.20
2022-09-01T16:30:03.352Z,23.39
2022-09-01T16:32:48.997Z,23.43
2022-09-01T16:35:56.017Z,23.43
2022-09-01T16:38:47.618Z,23.40
2022-09-01T16:42:06.207Z,23.30
2022-09-01T16:45:08.891Z,23.92
2022-09-01T16:47:57.034Z,23.53
2022-09-01T16:50:55.378Z,24.36
2022-09-01T16:53:57.198Z,24.66
2022-09-01T16:57:04.988Z,24.48
2022-09-01T16:59:55.872Z,24.52
2022-09-01T17:03:06.093Z,24.48
2022-09-01T17:06:16.853Z,24.32
2022-09-01T17:09:15.189Z,23.75
2022-09-01T17:12:03.358Z,23.45
2022-09-01T17:14:55.533Z,23.56
2022-09-01T17:17:55.050Z,23.41
2022-09-01T17:20:43.715Z,23.30
2022-09-01T17:23:50.405Z,23.14
2022-09-01T17:26:35.535Z,23.08
2022-09-01T17:29:27.933Z,23.14
2022-09-01T17:32:25.450Z,22.88
2022-09-01T17:35:19.520Z,22.75
2022-09-01T17:38:23.721Z,22.89
2022-09-01T17:41:36.331Z,22.73
2022-09-01T17:44:46.959Z,22.70
2022-09-01T17:47:55.326Z,22.48
2022-09-01T17:51:05.749Z,22.18
2022-09-01T17:54:03.086Z,22.03
2022-09-01T17:57:05.008Z,21.86
2022-09-01T18:00:25.264Z,21.68
2022-09-01T18:03:46.286Z,21.71
2022-09-01T18:06:50.805Z,21.65
2022-09-01T18:09:45.093Z,21.51
2022-09-01T18:12:38.345Z,21.48
2022-09-01T18:15:24.340Z,21.39
2022-09-01T18:18:40.257Z,21.45
2022-09-01T18:21:32.080Z,21.37
2022-09-01T18:25:02.757Z,21.38
2022-09-01T18:27:48.076Z,21.24
2022-09-01T18:31:05.450Z,21.18
2022-09-01T18:34:09.725Z,21.05
2022-09-01T18:37:13.370Z,20.95
2022-09-01T18:40:21.523Z,20.84
2022-09-01T18:43:14.153Z,20.80
2022-09-01T18:46:08.729Z,20.75
2022-09-01T18:49:11.958Z,20.75
2022-09-01T18:52:20.088Z,20.62
2022-09-01T18:55:26.141Z,20.46
2022-09-01T18:58:31.820Z,20.44
2022-09-01T19:01:28.802Z,20.34
2022-09-01T19:04:34.111Z,20.14
2022-09-01T19:07:31.585Z,20.20
2022-09-01T19:10:20.783Z,20.27
2022-09-01T19:13:33.871Z,20.30
2022-09-01T19:16:44.504Z,20.15
2022-09-01T19:20:01.631Z,20.11
2022-09-01T19:22:56.023Z,19.97
2022-09-01T19:25:42.012Z,20.01
2022-09-01T19:28:40.694Z,19.83
2022-09-01T19:31:36.194Z,19.83
2022-09-01T19:34:56.446Z,19.67
2022-09-01T19:37:41.845Z,19.78
2022-09-01T19:40:32.318Z,19.70
2022-09-01T19:43:17.701Z,19.68
2022-09-01T19:46:20.778Z,19.67
2022-09-01T19:49:36.427Z,19.70
2022-09-01T19:52:22.014Z,19.69
2022-09-01T19:55:16.710Z,19.67
2022-09-01T19:58:10.503Z,19.60
2022-09-01T20:00:59.677Z,19.59
2022-09-01T20:03:50.436Z,19.48
2022-09-01T20:06:41.416Z,19.53
2022-09-01T20:09:56.730Z,19.42
2022-09-01T20:12:53.359Z,19.45
2022-09-01T20:15:54.086Z,19.45
2022-09-01T20:18:50.153Z,19.38
2022-09-01T20:21:43.965Z,19.34
2022-09-01T20:24:32.362Z,19.05
2022-09-01T20:27:29.487Z,18.95
2022-09-01T20:30:21.540Z,18.99
2022-09-01T20:33:19.615Z,18.98
2022-09-01T20:36:12.641Z,19.00
2022-09-01T20:39:03.833Z,18.92
2022-09-01T20:42:01.918Z,18.60
2022-09-01T20:44:56.395Z,18.60
2022-09-01T20:47:46.488Z,18.66
2022-09-01T20:50:54.364Z,18.68
2022-09-01T20:54:07.029Z,18.69
2022-09-01T20:57:31.604Z,18.72
2022-09-01T21:00:26.064Z,18.64
2022-09-01T21:03:38.134Z,18.66
2022-09-01T21:06:48.815Z,18.62
2022-09-01T21:09:43.097Z,18.62
2022-09-01T21:12:28.170Z,18.51
2022-09-01T21:15:44.278Z,18.55
2022-09-01T21:18:38.519Z,18.54
2022-09-01T21:21:35.851Z,18.54
2022-09-01T21:24:21.253Z,18.43
2022-09-01T21:27:13.194Z,18.45
2022-09-01T21:30:01.730Z,18.41
2022-09-01T21:32:47.210Z,18.41
2022-09-01T21:35:32.608Z,18.36
2022-09-01T21:38:18.188Z,18.33
2022-09-01T21:41:06.815Z,18.24
2022-09-01T21:43:54.896Z,18.12
2022-09-01T21:46:40.290Z,18.17
2022-09-01T21:49:25.633Z,18.09
2022-09-01T21:52:10.933Z,18.07
2022-09-01T21:54:56.404Z,18.14
2022-09-01T21:57:41.795Z,18.10
2022-09-01T22:00:31.748Z,18.05
2022-09-01T22:03:17.330Z,18.05
2022-09-01T22:06:02.372Z,17.99
2022-09-01T22:08:47.668Z,17.98
2022-09-01T22:11:35.586Z,17.92
2022-09-01T22:14:21.572Z,17.75
2022-09-01T22:17:06.994Z,17.76
2022-09-01T22:19:52.367Z,17.78
2022-09-01T22:22:37.838Z,17.66
2022-09-01T22:25:23.212Z,17.76
2022-09-01T22:28:09.397Z,17.73
2022-09-01T22:30:54.426Z,17.59
2022-09-01T22:33:39.761Z,17.70
2022-09-01T22:36:32.084Z,17.58
2022-09-01T22:39:18.350Z,17.59
2022-09-01T22:42:03.894Z,17.47
2022-09-01T22:44:49.181Z,17.58
2022-09-01T22:47:35.327Z,17.62
2022-09-01T22:50:23.089Z,17.45
2022-09-01T22:53:08.805Z,17.52
2022-09-01T22:55:54.228Z,17.40
2022-09-01T22:58:40.352Z,17.33
2022-09-01T23:01:27.704Z,17.33
2022-09-01T23:04:14.726Z,17.38
2022-09-01T23:06:59.773Z,17.24
2022-09-01T23:09:44.960Z,17.23
2022-09-01T23:12:30.069Z,17.26
2022-09-01T23:15:15.520Z,17.16
2022-09-01T23:18:00.954Z,17.12
2022-09-01T23:20:46.368Z,17.03
2022-09-01T23:23:32.901Z,17.07
2022-09-01T23:26:18.515Z,17.01
2022-09-01T23:29:04.586Z,16.83
2022-09-01T23:31:49.942Z,16.71
2022-09-01T23:34:35.395Z,16.78
2022-09-01T23:37:20.729Z,16.74
2022-09-01T23:40:07.019Z,16.68
2022-09-01T23:42:51.985Z,16.67
2022-09-01T23:45:42.603Z,16.65
2022-09-01T23:48:27.929Z,16.65
2022-09-01T23:51:13.867Z,16.67
2022-09-01T23:53:59.593Z,16.61
2022-09-01T23:56:45.010Z,16.45
2022-09-01T23:59:30.065Z,16.34
